Time;durP1;ratioP1;P1;durP2;ratioP2;P2;SDS_P1;SDS_P2;PMS_P1;PMS_P2;Temp;Humidity;BMP_temperature;BMP_pressure;BME280_temperature;BME280_humidity;BME280_pressure;Samples;Min_cycle;Max_cycle;Signal;HPM_P1;HPM_P2
2022/06/05 00:01:26;;;;;;;6.72;4.28;;;21.10;63.80;;;;;;5075013;28;20114;-60
2022/06/05 00:04:22;;;;;;;7.13;4.05;;;21.10;64.00;;;;;;5078466;28;20361;-59
2022/06/05 00:07:12;;;;;;;5.45;4.07;;;21.10;64.30;;;;;;5075520;28;20058;-59
2022/06/05 00:09:54;;;;;;;6.72;4.40;;;21.10;64.60;;;;;;5080245;28;20063;-60
2022/06/05 00:12:29;;;;;;;4.57;3.95;;;21.10;64.50;;;;;;5078139;28;20038;-60
2022/06/05 00:14:55;;;;;;;10.30;4.43;;;21.10;64.00;;;;;;5078018;28;20029;-60
2022/06/05 00:17:22;;;;;;;6.57;3.85;;;21.10;63.70;;;;;;5089355;28;20059;-59
2022/06/05 00:19:50;;;;;;;5.57;4.60;;;21.10;63.70;;;;;;5082596;28;20056;-60
2022/06/05 00:22:16;;;;;;;6.00;4.55;;;21.10;64.00;;;;;;5071290;28;20036;-60
2022/06/05 00:24:41;;;;;;;5.18;4.13;;;21.10;64.00;;;;;;5083213;28;20063;-60
2022/06/05 00:27:07;;;;;;;5.32;4.38;;;21.10;64.80;;;;;;5087691;28;20032;-60
2022/06/05 00:29:39;;;;;;;4.88;4.38;;;21.10;64.00;;;;;;5080769;28;20037;-60
2022/06/05 00:32:37;;;;;;;6.25;4.57;;;21.10;64.60;;;;;;5077319;28;20036;-60
2022/06/05 00:35:04;;;;;;;4.75;4.25;;;21.10;64.80;;;;;;5073896;28;20072;-60
2022/06/05 00:37:43;;;;;;;5.35;4.30;;;21.10;64.00;;;;;;5087343;28;20025;-60
2022/06/05 00:40:33;;;;;;;5.72;4.57;;;21.00;64.50;;;;;;5072411;28;20028;-60
2022/06/05 00:43:01;;;;;;;5.20;4.13;;;21.00;64.80;;;;;;5077580;28;20043;-60
2022/06/05 00:45:30;;;;;;;5.25;3.95;;;21.00;64.00;;;;;;5069476;28;20052;-60
2022/06/05 00:47:57;;;;;;;5.75;4.45;;;21.00;64.00;;;;;;5078582;28;20035;-60
2022/06/05 00:50:29;;;;;;;5.22;4.47;;;21.00;63.90;;;;;;5074949;28;20040;-60
2022/06/05 00:52:58;;;;;;;5.85;4.25;;;21.00;64.40;;;;;;5077097;28;20036;-60
2022/06/05 00:55:27;;;;;;;6.18;4.55;;;21.00;64.50;;;;;;5077112;28;20044;-60
2022/06/05 00:57:54;;;;;;;5.00;4.50;;;20.90;64.40;;;;;;5073530;28;20028;-60
2022/06/05 01:00:28;;;;;;;6.40;4.75;;;20.90;64.50;;;;;;5079693;28;20028;-60
2022/06/05 01:02:56;;;;;;;6.53;4.23;;;20.90;64.80;;;;;;5077064;28;20047;-60
2022/06/05 01:05:25;;;;;;;5.35;4.63;;;20.90;64.60;;;;;;5073623;28;20032;-60
2022/06/05 01:07:51;;;;;;;6.68;4.63;;;20.90;64.80;;;;;;5079431;28;20086;-60
2022/06/05 01:10:19;;;;;;;5.53;4.55;;;20.90;64.80;;;;;;5076128;28;20021;-60
2022/06/05 01:13:05;;;;;;;5.40;4.72;;;20.90;65.00;;;;;;5077332;28;20024;-60
2022/06/05 01:15:59;;;;;;;7.95;4.13;;;20.90;65.70;;;;;;5079595;28;20031;-59
2022/06/05 01:18:34;;;;;;;4.85;4.25;;;20.90;65.40;;;;;;5075860;28;20052;-60
2022/06/05 01:21:10;;;;;;;5.63;4.47;;;20.90;65.10;;;;;;5069328;28;20037;-60
2022/06/05 01:24:00;;;;;;;5.68;4.28;;;20.80;65.40;;;;;;5082244;28;20044;-61
2022/06/05 01:27:00;;;;;;;5.00;3.95;;;20.80;65.50;;;;;;5014411;28;20025;-59
2022/06/05 01:29:37;;;;;;;5.70;4.45;;;20.80;65.60;;;;;;5069088;28;20148;-60
2022/06/05 01:32:12;;;;;;;6.05;4.43;;;20.80;65.20;;;;;;5078751;28;20440;-60
2022/06/05 01:34:48;;;;;;;4.75;4.30;;;20.80;65.10;;;;;;5075451;28;20028;-60
2022/06/05 01:37:33;;;;;;;4.97;4.40;;;20.80;65.30;;;;;;5075241;28;20043;-60
2022/06/05 01:40:16;;;;;;;5.43;4.35;;;20.80;65.30;;;;;;5071714;28;20020;-59
2022/06/05 01:42:47;;;;;;;5.78;4.20;;;20.80;65.30;;;;;;5076012;28;20047;-60
2022/06/05 01:45:29;;;;;;;6.05;4.43;;;20.80;64.90;;;;;;5080868;28;20481;-59
2022/06/05 01:47:59;;;;;;;4.00;3.67;;;20.80;65.40;;;;;;5079619;28;20031;-60
2022/06/05 01:50:37;;;;;;;6.45;4.68;;;20.70;64.80;;;;;;5075104;28;20088;-60
2022/06/05 01:53:06;;;;;;;5.60;3.97;;;20.70;65.30;;;;;;5078581;28;20035;-61
2022/06/05 01:56:05;;;;;;;3.95;3.55;;;20.70;65.00;;;;;;5079148;28;20032;-59
2022/06/05 01:59:03;;;;;;;4.05;3.65;;;20.70;65.60;;;;;;5068625;28;20047;-60
2022/06/05 02:01:42;;;;;;;5.00;4.40;;;20.70;65.00;;;;;;5054340;28;20048;-61
2022/06/05 02:04:20;;;;;;;4.22;3.83;;;20.70;65.20;;;;;;5070580;28;20040;-61
2022/06/05 02:06:53;;;;;;;4.97;4.05;;;20.70;65.30;;;;;;5077326;28;20071;-60
2022/06/05 02:09:42;;;;;;;4.85;4.28;;;20.60;65.00;;;;;;5077293;28;20085;-60
2022/06/05 02:12:08;;;;;;;6.10;4.60;;;20.60;64.90;;;;;;5088182;28;20120;-60
2022/06/05 02:14:35;;;;;;;4.80;4.30;;;20.60;64.90;;;;;;5079810;28;20031;-60
2022/06/05 02:17:00;;;;;;;3.58;3.28;;;20.60;64.90;;;;;;5075427;28;20025;-60
2022/06/05 02:19:27;;;;;;;5.30;4.22;;;20.60;64.90;;;;;;5073579;28;20089;-60
2022/06/05 02:21:58;;;;;;;5.45;4.45;;;20.60;65.00;;;;;;5070845;28;20067;-60
2022/06/05 02:24:24;;;;;;;4.70;4.15;;;20.60;65.50;;;;;;5071742;28;20048;-60
2022/06/05 02:26:50;;;;;;;4.18;3.78;;;20.50;65.10;;;;;;5072897;28;20029;-59
2022/06/05 02:29:26;;;;;;;6.82;3.70;;;20.50;65.20;;;;;;5073203;28;20047;-60
2022/06/05 02:31:52;;;;;;;6.15;3.92;;;20.50;65.60;;;;;;5070822;28;20036;-61
2022/06/05 02:34:22;;;;;;;8.38;4.25;;;20.50;65.20;;;;;;5076371;28;22085;-60
2022/06/05 02:37:12;;;;;;;4.47;4.07;;;20.50;65.60;;;;;;5086011;28;20035;-60
2022/06/05 02:39:49;;;;;;;4.85;3.78;;;20.50;66.00;;;;;;5074905;28;20040;-60
2022/06/05 02:42:15;;;;;;;4.78;4.10;;;20.50;65.40;;;;;;5072770;28;20043;-60
2022/06/05 02:45:19;;;;;;;6.43;3.95;;;20.40;65.20;;;;;;5072143;28;20025;-60
2022/06/05 02:47:51;;;;;;;5.65;3.90;;;20.40;65.80;;;;;;5081669;28;20077;-60
2022/06/05 02:50:27;;;;;;;4.55;3.80;;;20.40;65.10;;;;;;5075570;28;20036;-60
2022/06/05 02:53:01;;;;;;;5.80;3.92;;;20.40;65.50;;;;;;5074321;28;20093;-60
2022/06/05 02:55:27;;;;;;;4.03;3.53;;;20.40;65.50;;;;;;5079224;28;20031;-59
2022/06/05 02:57:52;;;;;;;3.65;3.35;;;20.40;65.10;;;;;;5075308;28;20373;-60
2022/06/05 03:00:24;;;;;;;3.83;3.38;;;20.40;65.10;;;;;;5081018;28;20052;-60
2022/06/05 03:05:36;;;;;;;5.40;3.55;;;20.40;65.10;;;;;;5070481;28;20089;-60
2022/06/05 03:08:02;;;;;;;3.85;3.45;;;20.40;65.10;;;;;;5076298;28;20056;-60
2022/06/05 03:10:28;;;;;;;5.05;3.30;;;20.40;65.10;;;;;;5078549;28;20035;-60
2022/06/05 03:12:54;;;;;;;4.32;3.42;;;20.40;65.00;;;;;;5089566;28;20518;-60
2022/06/05 03:15:20;;;;;;;4.25;3.58;;;20.40;65.00;;;;;;5072428;28;20044;-60
2022/06/05 03:17:46;;;;;;;3.58;3.28;;;20.40;65.10;;;;;;5085767;28;20077;-59
2022/06/05 03:20:14;;;;;;;3.70;3.25;;;20.40;65.10;;;;;;5076861;28;20021;-60
2022/06/05 03:22:41;;;;;;;4.22;3.22;;;20.40;65.10;;;;;;5079282;28;20024;-60
2022/06/05 03:25:08;;;;;;;5.53;3.30;;;20.40;65.00;;;;;;5075232;28;20055;-60
2022/06/05 03:27:34;;;;;;;4.55;3.30;;;20.40;65.10;;;;;;5078487;28;20028;-60
2022/06/05 03:30:01;;;;;;;3.65;3.33;;;20.40;65.10;;;;;;5072991;28;20032;-59
2022/06/05 03:32:27;;;;;;;3.97;3.03;;;20.40;65.10;;;;;;5077637;28;20021;-60
2022/06/05 03:34:53;;;;;;;4.10;3.00;;;20.40;65.00;;;;;;5075293;28;20036;-60
2022/06/05 03:37:19;;;;;;;3.63;3.25;;;20.40;65.10;;;;;;5079378;28;20036;-60
2022/06/05 03:39:45;;;;;;;4.18;3.25;;;20.40;65.10;;;;;;5071465;28;20114;-60
2022/06/05 03:42:10;;;;;;;4.20;3.78;;;20.40;65.20;;;;;;5074862;28;20098;-60
2022/06/05 03:44:38;;;;;;;4.57;3.17;;;20.40;65.30;;;;;;5072182;28;20032;-59
2022/06/05 03:47:05;;;;;;;3.50;3.20;;;20.40;65.50;;;;;;5081891;28;20025;-60
2022/06/05 03:49:32;;;;;;;7.32;3.72;;;20.40;65.50;;;;;;5073808;28;20028;-60
2022/06/05 03:51:57;;;;;;;4.65;4.00;;;20.40;65.50;;;;;;5086189;28;20033;-60
2022/06/05 03:54:23;;;;;;;4.85;3.65;;;20.40;65.70;;;;;;5075493;28;20099;-60
2022/06/05 03:56:49;;;;;;;3.65;3.10;;;20.40;65.70;;;;;;5078548;28;20051;-59
2022/06/05 03:59:15;;;;;;;4.25;3.50;;;20.40;65.70;;;;;;5082936;28;20024;-59
2022/06/05 04:01:40;;;;;;;4.20;3.35;;;20.40;65.80;;;;;;5074818;28;20036;-60
2022/06/05 04:04:06;;;;;;;5.60;3.25;;;20.40;65.70;;;;;;5073660;28;20044;-60
2022/06/05 04:06:32;;;;;;;4.03;3.63;;;20.40;65.70;;;;;;5082108;28;20476;-60
2022/06/05 04:09:00;;;;;;;4.57;3.50;;;20.40;65.80;;;;;;5079491;28;20070;-60
2022/06/05 04:11:28;;;;;;;8.27;4.25;;;20.40;65.90;;;;;;5069220;28;20025;-60
2022/06/05 04:13:54;;;;;;;4.53;3.58;;;20.40;65.90;;;;;;5077599;28;20044;-59
2022/06/05 04:16:23;;;;;;;11.77;3.45;;;20.40;65.90;;;;;;5075730;28;20048;-59
2022/06/05 04:18:50;;;;;;;4.68;4.03;;;20.40;65.90;;;;;;5073833;28;20029;-60
2022/06/05 04:21:18;;;;;;;4.90;3.88;;;20.40;65.90;;;;;;5076750;28;20100;-59
2022/06/05 04:23:44;;;;;;;4.07;3.65;;;20.40;66.00;;;;;;5069842;28;20048;-60
2022/06/05 04:26:13;;;;;;;3.58;3.28;;;20.40;65.80;;;;;;5074882;28;20036;-60
2022/06/05 04:28:39;;;;;;;4.35;3.40;;;20.40;65.90;;;;;;5067835;28;20020;-61
2022/06/05 04:31:14;;;;;;;6.75;3.75;;;20.40;65.80;;;;;;5075511;28;20050;-60
2022/06/05 04:33:40;;;;;;;4.35;3.50;;;20.40;65.90;;;;;;5071406;28;20031;-60
2022/06/05 04:36:05;;;;;;;4.30;3.08;;;20.40;65.80;;;;;;5076068;28;20024;-60
2022/06/05 04:38:31;;;;;;;5.30;3.28;;;20.40;65.80;;;;;;5080863;28;20026;-59
2022/06/05 04:40:57;;;;;;;4.47;3.38;;;20.40;66.00;;;;;;5079566;28;21151;-60
2022/06/05 04:43:22;;;;;;;5.38;2.97;;;20.40;65.90;;;;;;5082463;28;20091;-59
2022/06/05 04:45:48;;;;;;;4.93;3.65;;;20.50;65.90;;;;;;5068528;28;20953;-61
2022/06/05 04:48:14;;;;;;;3.45;3.08;;;20.50;66.00;;;;;;5079409;28;20112;-59
2022/06/05 04:50:40;;;;;;;3.78;3.38;;;20.50;66.00;;;;;;5073459;28;20056;-60
2022/06/05 04:53:06;;;;;;;4.30;3.67;;;20.60;66.00;;;;;;5079067;28;20106;-60
2022/06/05 04:55:31;;;;;;;5.18;2.95;;;20.60;65.90;;;;;;5077118;28;20104;-60
2022/06/05 04:57:57;;;;;;;6.68;3.50;;;20.60;65.90;;;;;;5077701;28;20108;-60
2022/06/05 05:00:23;;;;;;;3.88;3.03;;;20.70;65.80;;;;;;5079732;28;20032;-61
2022/06/05 05:02:49;;;;;;;4.68;3.47;;;20.70;65.80;;;;;;5075732;28;20037;-61
2022/06/05 05:05:15;;;;;;;3.33;3.03;;;20.70;65.70;;;;;;5070482;28;20033;-60
2022/06/05 05:07:41;;;;;;;3.42;3.13;;;20.80;65.70;;;;;;5080650;28;20036;-60
2022/06/05 05:10:07;;;;;;;3.83;2.97;;;20.80;65.70;;;;;;5076525;28;20024;-60
2022/06/05 05:12:33;;;;;;;4.93;3.30;;;20.80;65.60;;;;;;5083757;28;20040;-60
2022/06/05 05:14:59;;;;;;;4.22;3.20;;;20.90;65.60;;;;;;5079999;28;20033;-61
2022/06/05 05:17:25;;;;;;;6.75;3.47;;;20.90;65.50;;;;;;5084272;28;20036;-60
2022/06/05 05:19:50;;;;;;;3.80;3.50;;;20.90;65.40;;;;;;5082011;28;20025;-60
2022/06/05 05:22:16;;;;;;;4.32;3.15;;;21.00;65.30;;;;;;5078180;28;20071;-60
2022/06/05 05:24:43;;;;;;;8.38;3.60;;;21.00;65.30;;;;;;5077919;28;20040;-60
2022/06/05 05:27:09;;;;;;;3.78;3.40;;;21.00;65.10;;;;;;5073674;28;20021;-60
2022/06/05 05:29:34;;;;;;;5.32;3.50;;;21.00;65.00;;;;;;5074557;28;20100;-60
2022/06/05 05:32:00;;;;;;;6.47;3.60;;;21.00;64.90;;;;;;5075659;28;20113;-61
2022/06/05 05:34:26;;;;;;;5.88;3.58;;;21.10;64.90;;;;;;5079328;28;20020;-60
2022/06/05 05:36:51;;;;;;;3.85;3.17;;;21.10;65.00;;;;;;5072183;28;21219;-60
2022/06/05 05:42:08;;;;;;;3.85;3.45;;;21.10;64.90;;;;;;5070812;28;20075;-60
2022/06/05 05:44:46;;;;;;;5.55;3.28;;;21.10;64.90;;;;;;5081421;28;20032;-60
2022/06/05 05:47:22;;;;;;;3.80;3.17;;;21.10;65.00;;;;;;5077052;28;20053;-61
2022/06/05 05:49:59;;;;;;;4.28;3.40;;;21.10;65.00;;;;;;5065931;28;20112;-60
2022/06/05 05:52:26;;;;;;;5.10;3.60;;;21.10;65.00;;;;;;5071751;28;20091;-60
2022/06/05 05:54:51;;;;;;;5.60;3.25;;;21.10;64.90;;;;;;5078924;28;20024;-60
2022/06/05 05:57:18;;;;;;;4.65;3.50;;;21.10;64.80;;;;;;5076312;28;20031;-60
2022/06/05 05:59:44;;;;;;;4.03;3.20;;;21.10;65.00;;;;;;5076193;28;20032;-60
2022/06/05 06:02:18;;;;;;;4.40;3.50;;;21.10;64.90;;;;;;5075650;28;20396;-60
2022/06/05 06:04:45;;;;;;;4.63;3.25;;;21.10;64.90;;;;;;5081131;28;20751;-60
2022/06/05 06:07:12;;;;;;;4.07;3.10;;;21.10;64.80;;;;;;5075426;28;20032;-61
2022/06/05 06:09:39;;;;;;;6.68;3.25;;;21.10;64.80;;;;;;5078430;28;20032;-62
2022/06/05 06:12:05;;;;;;;3.63;3.25;;;21.10;64.70;;;;;;5071499;28;20028;-61
2022/06/05 06:14:33;;;;;;;4.50;3.40;;;21.10;64.70;;;;;;5081308;28;20063;-61
2022/06/05 06:16:59;;;;;;;16.35;4.57;;;21.10;64.70;;;;;;5078895;28;20025;-61
2022/06/05 06:19:24;;;;;;;9.98;4.20;;;21.10;65.00;;;;;;5082677;28;20093;-61
2022/06/05 06:21:50;;;;;;;8.35;4.00;;;21.10;65.00;;;;;;5085157;28;20115;-61
2022/06/05 06:24:16;;;;;;;4.65;3.35;;;21.00;64.60;;;;;;5079535;28;20405;-61
2022/06/05 06:26:42;;;;;;;11.32;3.70;;;21.00;64.70;;;;;;5079161;28;20027;-61
2022/06/05 06:29:09;;;;;;;13.13;3.70;;;20.90;64.80;;;;;;5081559;28;20033;-60
2022/06/05 06:31:38;;;;;;;8.63;2.45;;;20.90;65.30;;;;;;5075064;28;20016;-61
2022/06/05 06:34:04;;;;;;;4.35;2.40;;;20.80;65.10;;;;;;5084857;28;20021;-61
2022/06/05 06:36:32;;;;;;;8.25;2.17;;;20.80;65.10;;;;;;5072704;28;20032;-61
2022/06/05 06:38:58;;;;;;;3.45;1.50;;;20.70;65.20;;;;;;5077334;28;20024;-61
2022/06/05 06:41:25;;;;;;;6.90;1.60;;;20.60;65.20;;;;;;5085356;28;20064;-61
2022/06/05 06:43:51;;;;;;;5.80;1.80;;;20.50;65.60;;;;;;5077977;28;20056;-61
2022/06/05 06:46:17;;;;;;;4.93;1.73;;;20.50;65.80;;;;;;5079007;28;20025;-60
2022/06/05 06:48:44;;;;;;;4.35;1.83;;;20.30;66.00;;;;;;5075726;28;20059;-61
2022/06/05 06:51:10;;;;;;;4.53;1.95;;;20.30;66.40;;;;;;5069033;28;20471;-61
2022/06/05 06:53:36;;;;;;;5.63;1.77;;;20.10;66.80;;;;;;5077313;28;20032;-60
2022/06/05 06:56:17;;;;;;;5.78;1.85;;;20.10;67.60;;;;;;5075750;28;20024;-60
2022/06/05 06:58:44;;;;;;;6.43;2.17;;;20.00;69.00;;;;;;5079917;28;20031;-60
2022/06/05 07:01:11;;;;;;;5.82;1.92;;;20.00;68.30;;;;;;5081767;28;20036;-61
2022/06/05 07:03:37;;;;;;;5.00;2.10;;;20.00;68.60;;;;;;5079345;28;20023;-60
2022/06/05 07:06:06;;;;;;;3.47;2.05;;;19.90;68.60;;;;;;5081919;28;20046;-61
2022/06/05 07:08:32;;;;;;;5.25;2.03;;;19.90;68.90;;;;;;5081531;28;20058;-61
2022/06/05 07:10:58;;;;;;;4.57;2.28;;;19.90;68.80;;;;;;5080871;28;20056;-60
2022/06/05 07:13:25;;;;;;;4.30;2.30;;;19.80;69.20;;;;;;5078783;28;20028;-61
2022/06/05 07:15:51;;;;;;;9.50;3.88;;;19.80;69.90;;;;;;5079122;28;20558;-61
2022/06/05 07:18:17;;;;;;;7.35;2.70;;;19.70;69.90;;;;;;5087385;28;20036;-61
2022/06/05 07:20:44;;;;;;;3.92;2.35;;;19.70;70.10;;;;;;5089335;28;20025;-61
2022/06/05 07:23:10;;;;;;;8.18;3.10;;;19.70;70.30;;;;;;5078629;28;20751;-60
2022/06/05 07:25:37;;;;;;;6.00;2.63;;;19.70;70.80;;;;;;5081409;28;20055;-61
2022/06/05 07:28:04;;;;;;;4.80;2.08;;;19.70;70.70;;;;;;5081563;28;20033;-60
2022/06/05 07:30:30;;;;;;;3.22;2.10;;;19.60;70.70;;;;;;5080386;28;20594;-61
2022/06/05 07:32:56;;;;;;;4.18;2.47;;;19.60;70.80;;;;;;5072428;28;20054;-61
2022/06/05 07:35:22;;;;;;;3.38;1.75;;;19.60;71.20;;;;;;5077471;28;20032;-61
2022/06/05 07:37:48;;;;;;;2.15;1.70;;;19.60;70.90;;;;;;5084302;28;20024;-60
2022/06/05 07:40:15;;;;;;;3.72;1.70;;;19.50;70.70;;;;;;5075731;28;20032;-60
2022/06/05 07:42:42;;;;;;;2.50;1.80;;;19.50;70.90;;;;;;5072021;28;20393;-60
2022/06/05 07:45:10;;;;;;;4.00;1.80;;;19.50;71.50;;;;;;5068540;28;20087;-61
2022/06/05 07:47:36;;;;;;;3.78;1.70;;;19.50;71.60;;;;;;5081402;28;20066;-60
2022/06/05 07:50:03;;;;;;;3.63;1.50;;;19.50;71.70;;;;;;5075597;28;20039;-60
2022/06/05 07:55:13;;;;;;;2.47;1.30;;;19.50;71.30;;;;;;5076613;28;20062;-60
2022/06/05 07:57:39;;;;;;;3.05;1.50;;;19.40;71.00;;;;;;5080010;28;20032;-61
2022/06/05 08:00:07;;;;;;;3.90;1.60;;;19.40;71.40;;;;;;5073368;28;20032;-61
2022/06/05 08:02:34;;;;;;;2.83;1.40;;;19.40;71.40;;;;;;5079171;28;20056;-61
2022/06/05 08:05:02;;;;;;;2.08;1.17;;;19.40;71.50;;;;;;5077014;28;20024;-62
2022/06/05 08:07:29;;;;;;;0.88;0.80;;;19.40;71.50;;;;;;5075372;28;20048;-60
2022/06/05 08:09:56;;;;;;;2.28;1.13;;;19.40;71.40;;;;;;5077112;28;20012;-60
2022/06/05 08:12:24;;;;;;;1.10;1.00;;;19.50;71.60;;;;;;5082242;28;20028;-62
2022/06/05 08:14:52;;;;;;;1.83;1.00;;;19.50;71.50;;;;;;5079239;28;20021;-60
2022/06/05 08:17:21;;;;;;;1.65;0.90;;;19.50;71.60;;;;;;5071678;28;20052;-60
2022/06/05 08:19:47;;;;;;;0.70;0.70;;;19.60;71.60;;;;;;5084541;28;20041;-60
2022/06/05 08:22:15;;;;;;;2.08;0.90;;;19.60;71.30;;;;;;5077820;28;20146;-61
2022/06/05 08:24:41;;;;;;;2.10;0.70;;;19.70;70.90;;;;;;5031526;28;1167168;-61
2022/06/05 08:27:10;;;;;;;2.42;0.80;;;19.70;71.00;;;;;;5069636;28;20035;-61
2022/06/05 08:29:36;;;;;;;3.13;0.70;;;19.80;71.00;;;;;;5077694;28;20033;-61
2022/06/05 08:32:03;;;;;;;0.70;0.70;;;19.90;70.90;;;;;;5075549;28;20036;-61
2022/06/05 08:34:29;;;;;;;0.70;0.70;;;20.00;70.90;;;;;;5071817;28;20027;-61
2022/06/05 08:43:02;;;;;;;1.65;0.65;;;20.30;70.30;;;;;;5076176;28;20059;-60
2022/06/05 08:45:27;;;;;;;2.05;0.63;;;20.40;71.50;;;;;;5061479;28;20048;-61
2022/06/05 08:48:02;;;;;;;1.88;0.70;;;20.60;70.50;;;;;;5073551;28;20035;-62
2022/06/05 08:50:36;;;;;;;1.63;0.73;;;20.70;69.60;;;;;;5070372;28;20084;-60
2022/06/05 08:53:19;;;;;;;0.75;0.50;;;20.90;69.20;;;;;;5072210;28;20025;-61
2022/06/05 08:55:47;;;;;;;1.20;0.50;;;21.10;69.10;;;;;;5076328;28;20082;-61
2022/06/05 08:58:40;;;;;;;0.75;0.68;;;21.30;69.20;;;;;;5066575;28;20029;-60
2022/06/05 09:01:13;;;;;;;1.15;0.85;;;21.50;68.50;;;;;;5070140;28;20041;-60
2022/06/05 09:03:50;;;;;;;2.42;0.85;;;21.70;68.20;;;;;;5072307;28;20044;-61
2022/06/05 09:06:36;;;;;;;1.58;0.93;;;21.80;66.70;;;;;;5074731;28;20123;-61
2022/06/05 09:09:09;;;;;;;1.35;0.70;;;22.00;67.10;;;;;;5068990;28;20126;-61
2022/06/05 09:11:41;;;;;;;1.33;0.70;;;22.20;67.30;;;;;;5072957;28;20032;-62
2022/06/05 09:14:28;;;;;;;1.38;0.47;;;22.30;66.90;;;;;;5071833;28;20024;-62
2022/06/05 09:17:00;;;;;;;1.05;0.45;;;22.40;66.00;;;;;;5075182;28;20028;-61
2022/06/05 09:19:29;;;;;;;1.55;0.50;;;22.50;65.10;;;;;;5071339;28;20466;-61
2022/06/05 09:22:10;;;;;;;2.67;0.43;;;22.50;65.10;;;;;;5066461;28;20529;-61
2022/06/05 09:24:42;;;;;;;0.40;0.40;;;22.60;65.30;;;;;;5083733;28;20079;-61
2022/06/05 09:27:22;;;;;;;1.55;0.52;;;22.70;64.80;;;;;;5002685;28;20044;-60
2022/06/05 09:30:15;;;;;;;0.85;0.60;;;22.80;64.70;;;;;;5078864;28;20052;-60
2022/06/05 09:32:44;;;;;;;0.68;0.50;;;22.90;65.30;;;;;;5074785;28;20047;-60
2022/06/05 09:35:22;;;;;;;0.85;0.50;;;23.10;65.10;;;;;;5077701;28;20040;-60
2022/06/05 09:37:54;;;;;;;2.25;0.63;;;23.30;64.00;;;;;;5075112;28;20032;-60
2022/06/05 09:40:23;;;;;;;1.17;0.60;;;23.50;64.70;;;;;;5076565;28;20031;-60
2022/06/05 09:43:12;;;;;;;0.40;0.40;;;23.70;64.50;;;;;;5074396;28;20384;-60
2022/06/05 09:46:15;;;;;;;0.50;0.40;;;23.90;63.20;;;;;;5074248;28;20037;-62
2022/06/05 09:49:01;;;;;;;0.67;0.30;;;24.20;62.20;;;;;;5070880;28;20031;-61
2022/06/05 09:51:26;;;;;;;1.85;0.50;;;24.60;61.90;;;;;;5074282;28;20028;-60
2022/06/05 09:54:11;;;;;;;1.95;0.50;;;24.90;63.50;;;;;;5072826;28;20025;-62
2022/06/05 10:00:15;;;;;;;0.90;0.50;;;25.60;61.10;;;;;;5077366;28;20049;-62
2022/06/05 10:02:43;;;;;;;0.68;0.50;;;25.90;60.20;;;;;;5077531;28;20037;-63
2022/06/05 10:05:17;;;;;;;1.42;0.50;;;26.20;59.80;;;;;;5084459;28;20761;-62
2022/06/05 10:07:55;;;;;;;1.60;0.50;;;26.40;58.40;;;;;;5074705;28;20036;-62
2022/06/05 10:10:32;;;;;;;0.50;0.50;;;26.50;59.10;;;;;;5059333;28;20036;-61
2022/06/05 10:13:15;;;;;;;0.90;0.65;;;26.70;58.20;;;;;;5078540;28;20090;-61
2022/06/05 10:16:00;;;;;;;0.50;0.43;;;26.80;57.50;;;;;;5084161;28;20492;-62
2022/06/05 10:18:33;;;;;;;0.50;0.40;;;27.00;56.60;;;;;;5070918;28;20040;-60
2022/06/05 10:21:07;;;;;;;1.70;0.60;;;27.20;57.20;;;;;;5078027;28;20090;-60
2022/06/05 10:23:42;;;;;;;0.93;0.55;;;27.20;56.70;;;;;;5080557;28;20056;-61
2022/06/05 10:26:37;;;;;;;0.75;0.50;;;27.30;56.10;;;;;;5048953;28;20302;-61
2022/06/05 10:29:21;;;;;;;0.77;0.43;;;27.40;54.70;;;;;;5071080;28;20035;-60
2022/06/05 10:32:03;;;;;;;1.25;0.57;;;27.50;55.60;;;;;;5079914;28;20400;-63
2022/06/05 10:34:48;;;;;;;1.05;0.60;;;27.60;55.70;;;;;;5072729;28;20076;-61
2022/06/05 10:37:27;;;;;;;0.60;0.50;;;27.70;54.50;;;;;;5078682;28;20033;-61
2022/06/05 10:39:56;;;;;;;1.30;0.52;;;27.70;54.00;;;;;;5084303;28;20028;-61
2022/06/05 10:42:40;;;;;;;1.52;0.80;;;27.70;54.10;;;;;;5077315;28;20041;-61
2022/06/05 10:45:43;;;;;;;1.15;0.60;;;27.70;54.40;;;;;;5072944;28;20369;-61
2022/06/05 10:48:20;;;;;;;0.80;0.50;;;27.70;54.80;;;;;;5078971;28;20032;-61
2022/06/05 10:50:53;;;;;;;0.93;0.70;;;27.80;54.20;;;;;;5079786;28;20043;-61
2022/06/05 10:53:43;;;;;;;0.63;0.60;;;27.90;54.80;;;;;;5069524;28;20029;-61
2022/06/05 10:56:22;;;;;;;0.82;0.70;;;27.90;53.90;;;;;;5079527;28;20028;-61
2022/06/05 10:58:56;;;;;;;1.17;0.77;;;28.00;53.70;;;;;;5083652;28;20032;-61
2022/06/05 11:01:28;;;;;;;2.25;0.70;;;28.00;52.90;;;;;;5076334;28;20048;-61
2022/06/05 11:04:04;;;;;;;0.68;0.65;;;28.00;53.50;;;;;;5076757;28;20503;-61
2022/06/05 11:06:54;;;;;;;3.15;0.80;;;28.00;53.10;;;;;;5080859;28;20116;-61
2022/06/05 11:10:04;;;;;;;3.53;0.80;;;28.00;51.80;;;;;;5080098;28;20080;-61
2022/06/05 11:15:35;;;;;;;1.02;0.82;;;27.90;52.40;;;;;;5070894;28;20047;-61
2022/06/05 11:18:16;;;;;;;1.60;0.70;;;27.80;51.80;;;;;;5070163;28;20031;-61
2022/06/05 11:20:50;;;;;;;0.70;0.60;;;27.60;51.60;;;;;;5077146;28;20024;-62
2022/06/05 11:23:26;;;;;;;1.20;0.65;;;27.50;51.90;;;;;;5081193;28;20075;-61
2022/06/05 11:26:13;;;;;;;1.40;0.80;;;27.30;51.50;;;;;;5079564;28;20040;-61
2022/06/05 11:28:54;;;;;;;1.35;0.60;;;27.20;51.70;;;;;;5077412;28;20062;-62
2022/06/05 11:31:49;;;;;;;0.80;0.60;;;27.00;51.90;;;;;;5075720;28;20033;-61
2022/06/05 11:34:39;;;;;;;1.92;0.60;;;26.80;51.60;;;;;;5075786;28;20063;-62
2022/06/05 11:37:16;;;;;;;2.13;0.65;;;26.70;52.20;;;;;;5079383;28;20043;-61
2022/06/05 11:40:26;;;;;;;0.93;0.60;;;26.50;52.70;;;;;;5084171;28;20463;-61
2022/06/05 11:43:18;;;;;;;1.05;0.80;;;26.40;52.60;;;;;;5079598;28;20040;-61
2022/06/05 11:45:52;;;;;;;2.20;0.90;;;26.30;52.90;;;;;;5074492;28;20084;-61
2022/06/05 11:48:41;;;;;;;1.10;0.70;;;26.20;53.00;;;;;;5078657;28;20036;-61
2022/06/05 11:51:24;;;;;;;0.95;0.60;;;26.10;54.10;;;;;;5079677;28;20033;-63
2022/06/05 11:54:01;;;;;;;1.15;0.90;;;25.90;53.90;;;;;;5079525;28;20025;-61
2022/06/05 11:56:53;;;;;;;0.98;0.57;;;25.80;54.60;;;;;;5077776;28;20061;-61
2022/06/05 11:59:51;;;;;;;2.10;0.60;;;25.70;54.90;;;;;;5043976;28;20047;-62
2022/06/05 12:02:48;;;;;;;0.63;0.50;;;25.50;55.20;;;;;;5077044;28;20063;-62
2022/06/05 12:05:52;;;;;;;2.33;0.80;;;25.30;55.50;;;;;;5075242;28;20036;-62
2022/06/05 12:08:40;;;;;;;2.53;0.80;;;25.20;55.90;;;;;;5078234;28;20028;-61
2022/06/05 12:11:27;;;;;;;1.00;0.63;;;25.00;56.30;;;;;;5072719;28;20035;-61
2022/06/05 12:14:18;;;;;;;0.82;0.63;;;24.90;56.80;;;;;;5075161;28;20028;-62
2022/06/05 12:16:50;;;;;;;0.80;0.60;;;24.80;56.90;;;;;;5079315;28;20094;-62
2022/06/05 12:19:46;;;;;;;1.98;0.70;;;24.70;57.30;;;;;;5074420;28;20038;-61
2022/06/05 12:22:23;;;;;;;3.08;0.73;;;24.50;57.80;;;;;;5074351;28;20044;-62
2022/06/05 12:25:17;;;;;;;0.70;0.70;;;24.40;57.80;;;;;;5079668;28;20043;-62
2022/06/05 12:27:55;;;;;;;1.25;0.60;;;24.20;57.90;;;;;;5077945;28;20052;-62
2022/06/05 12:30:28;;;;;;;1.27;0.63;;;24.10;58.70;;;;;;5069573;28;20088;-62
2022/06/05 12:33:01;;;;;;;1.45;0.63;;;24.00;58.70;;;;;;5066845;28;20040;-62
2022/06/05 12:35:35;;;;;;;1.45;0.65;;;23.90;59.10;;;;;;5070611;28;20480;-61
2022/06/05 12:38:35;;;;;;;2.83;0.80;;;23.80;59.40;;;;;;5076559;28;20059;-61
2022/06/05 12:41:23;;;;;;;1.75;0.57;;;23.80;59.90;;;;;;5075502;28;20131;-61
2022/06/05 12:44:29;;;;;;;2.88;1.00;;;23.60;60.10;;;;;;5082489;28;20063;-60
2022/06/05 12:47:02;;;;;;;1.38;0.75;;;23.60;60.70;;;;;;4993441;28;20034;-61
2022/06/05 12:49:39;;;;;;;2.92;0.57;;;23.50;60.40;;;;;;4997095;28;20049;-60
2022/06/05 12:52:24;;;;;;;0.90;0.60;;;23.30;61.50;;;;;;4992824;28;20038;-60
2022/06/05 12:54:57;;;;;;;0.75;0.55;;;23.20;61.20;;;;;;4989348;28;20070;-60
2022/06/05 12:57:52;;;;;;;2.17;0.63;;;23.00;61.60;;;;;;4997930;28;20045;-61
2022/06/05 13:00:21;;;;;;;0.60;0.50;;;22.90;62.20;;;;;;4970038;28;20035;-60
2022/06/05 13:03:25;;;;;;;1.08;0.60;;;22.80;62.60;;;;;;4995942;28;20096;-60
2022/06/05 13:06:03;;;;;;;4.83;0.80;;;22.70;64.50;;;;;;4961261;28;20072;-61
2022/06/05 13:08:59;;;;;;;1.02;0.60;;;22.60;63.80;;;;;;4987095;28;20046;-60
2022/06/05 13:11:53;;;;;;;2.97;0.90;;;22.60;66.30;;;;;;4992579;28;20022;-60
2022/06/05 13:14:18;;;;;;;1.50;0.85;;;22.60;65.60;;;;;;4996933;28;20042;-61
2022/06/05 13:16:56;;;;;;;2.20;0.65;;;22.70;65.00;;;;;;4991554;28;20062;-61
2022/06/05 13:19:30;;;;;;;1.58;0.95;;;22.70;65.50;;;;;;4995400;28;20038;-60
2022/06/05 13:21:59;;;;;;;2.30;0.90;;;22.80;65.60;;;;;;5071378;28;20044;-61
2022/06/05 13:24:45;;;;;;;3.75;1.10;;;22.80;65.20;;;;;;5078051;28;20059;-61
2022/06/05 13:27:43;;;;;;;2.40;0.80;;;22.80;66.00;;;;;;5072659;28;20036;-61
2022/06/05 13:30:30;;;;;;;0.85;0.60;;;22.80;66.20;;;;;;5082712;28;20024;-61
2022/06/05 13:33:30;;;;;;;1.10;0.70;;;22.90;66.30;;;;;;5082870;28;20028;-61
2022/06/05 13:36:21;;;;;;;1.83;0.80;;;22.90;66.00;;;;;;5068565;28;20029;-61
2022/06/05 13:39:01;;;;;;;7.15;0.95;;;22.90;66.20;;;;;;5078977;28;20489;-61
2022/06/05 13:42:07;;;;;;;0.60;0.60;;;22.90;66.50;;;;;;5078966;28;20044;-61